createdAt,value
2022-10-22T00:00:02.259Z,2230.00
2022-10-22T00:00:12.298Z,2233.00
2022-10-22T00:00:22.335Z,2233.00
2022-10-22T00:00:32.370Z,2231.00
2022-10-22T00:00:42.399Z,2231.00
2022-10-22T00:01:02.442Z,2230.00
2022-10-22T00:01:12.483Z,2228.00
2022-10-22T00:01:22.607Z,2227.00
2022-10-22T00:01:32.648Z,2229.00
2022-10-22T00:01:42.694Z,2230.00
2022-10-22T00:01:52.750Z,2228.00
2022-10-22T00:02:02.808Z,2231.00
2022-10-22T00:02:12.853Z,2234.00
2022-10-22T00:02:22.942Z,2235.00
2022-10-22T00:02:33.011Z,2238.00
2022-10-22T00:02:43.184Z,2237.00
2022-10-22T00:02:53.203Z,2237.00
2022-10-22T00:03:03.288Z,2236.00
2022-10-22T00:03:13.239Z,2235.00
2022-10-22T00:03:23.289Z,2236.00
2022-10-22T00:03:33.323Z,2235.00
2022-10-22T00:03:43.360Z,2234.00
2022-10-22T00:03:53.390Z,2233.00
2022-10-22T00:04:03.433Z,2233.00
2022-10-22T00:04:13.477Z,2235.00
2022-10-22T00:04:23.573Z,2234.00
2022-10-22T00:04:35.445Z,2234.00
2022-10-22T00:04:53.941Z,2233.00
2022-10-22T00:05:03.989Z,2233.00
2022-10-22T00:05:14.030Z,2233.00
2022-10-22T00:05:24.093Z,2231.00
2022-10-22T00:05:34.130Z,2231.00
2022-10-22T00:05:44.177Z,2231.00
2022-10-22T00:05:54.221Z,2232.00
2022-10-22T00:06:04.289Z,2231.00
2022-10-22T00:06:14.331Z,2230.00
2022-10-22T00:06:24.393Z,2229.00
2022-10-22T00:06:34.430Z,2229.00
2022-10-22T00:06:44.480Z,2227.00
2022-10-22T00:06:54.515Z,2226.00
2022-10-22T00:07:04.600Z,2230.00
2022-10-22T00:07:14.641Z,2228.00
2022-10-22T00:07:24.685Z,2228.00
2022-10-22T00:07:34.724Z,2227.00
2022-10-22T00:07:44.784Z,2226.00
2022-10-22T00:07:54.812Z,2226.00
2022-10-22T00:08:04.844Z,2228.00
2022-10-22T00:08:14.887Z,2228.00
2022-10-22T00:08:24.930Z,2230.00
2022-10-22T00:08:35.018Z,2230.00
2022-10-22T00:08:45.145Z,2231.00
2022-10-22T00:08:55.275Z,2230.00
2022-10-22T00:09:05.238Z,2229.00
2022-10-22T00:09:15.361Z,2228.00
2022-10-22T00:09:25.432Z,2228.00
2022-10-22T00:09:35.478Z,2229.00
2022-10-22T00:09:45.521Z,2227.00
2022-10-22T00:09:55.591Z,2226.00
2022-10-22T00:10:05.630Z,2226.00
2022-10-22T00:10:15.678Z,2226.00
2022-10-22T00:10:25.728Z,2226.00
2022-10-22T00:10:35.757Z,2227.00
2022-10-22T00:10:45.789Z,2226.00
2022-10-22T00:10:55.843Z,2226.00
2022-10-22T00:11:05.880Z,2225.00
2022-10-22T00:11:15.915Z,2224.00
2022-10-22T00:11:25.954Z,2223.00
2022-10-22T00:11:35.995Z,2223.00
2022-10-22T00:11:46.041Z,2221.00
2022-10-22T00:11:56.089Z,2220.00
2022-10-22T00:12:06.122Z,2221.00
2022-10-22T00:12:16.153Z,2222.00
2022-10-22T00:12:26.185Z,2221.00
2022-10-22T00:12:36.231Z,2220.00
2022-10-22T00:12:46.279Z,2219.00
2022-10-22T00:12:56.322Z,2218.00
2022-10-22T00:13:06.362Z,2218.00
2022-10-22T00:13:16.413Z,2218.00
2022-10-22T00:13:26.456Z,2217.00
2022-10-22T00:13:36.549Z,2215.00
2022-10-22T00:13:56.619Z,2213.00
2022-10-22T00:14:06.649Z,2210.00
2022-10-22T00:14:16.704Z,2208.00
2022-10-22T00:14:26.745Z,2208.00
2022-10-22T00:14:36.795Z,2208.00
2022-10-22T00:14:46.826Z,2208.00
2022-10-22T00:14:56.934Z,2207.00
2022-10-22T00:15:06.976Z,2205.00
2022-10-22T00:15:17.031Z,2207.00
2022-10-22T00:15:27.072Z,2207.00
2022-10-22T00:15:37.115Z,2209.00
2022-10-22T00:15:57.192Z,2209.00
2022-10-22T00:16:07.234Z,2209.00
2022-10-22T00:16:17.303Z,2208.00
2022-10-22T00:16:27.338Z,2205.00
2022-10-22T00:16:37.387Z,2204.00
2022-10-22T00:16:57.455Z,2205.00
2022-10-22T00:17:11.200Z,2205.00
2022-10-22T00:17:17.585Z,2206.00
2022-10-22T00:17:27.623Z,2207.00
2022-10-22T00:17:38.046Z,2208.00
2022-10-22T00:17:57.724Z,2213.00
2022-10-22T00:18:07.761Z,2215.00
2022-10-22T00:18:17.803Z,2209.00
2022-10-22T00:18:27.833Z,2208.00
2022-10-22T00:18:37.882Z,2208.00
2022-10-22T00:18:57.962Z,2206.00
2022-10-22T00:19:08.008Z,2204.00
2022-10-22T00:19:18.052Z,2203.00
2022-10-22T00:19:28.080Z,2202.00
2022-10-22T00:19:38.128Z,2204.00
2022-10-22T00:19:58.175Z,2202.00
2022-10-22T00:20:08.224Z,2201.00
2022-10-22T00:20:18.264Z,2201.00
2022-10-22T00:20:28.309Z,2201.00
2022-10-22T00:20:38.356Z,2201.00
2022-10-22T00:20:58.425Z,2201.00
2022-10-22T00:21:08.461Z,2201.00
2022-10-22T00:21:18.494Z,2202.00
2022-10-22T00:21:28.534Z,2202.00
2022-10-22T00:21:38.579Z,2201.00
2022-10-22T00:21:58.626Z,2198.00
2022-10-22T00:22:08.667Z,2201.00
2022-10-22T00:22:18.729Z,2202.00
2022-10-22T00:22:28.776Z,2202.00
2022-10-22T00:22:38.905Z,2200.00
2022-10-22T00:22:58.884Z,2197.00
2022-10-22T00:23:08.948Z,2198.00
2022-10-22T00:23:18.989Z,2197.00
2022-10-22T00:23:29.030Z,2195.00
2022-10-22T00:23:39.069Z,2194.00
2022-10-22T00:23:59.130Z,2190.00
2022-10-22T00:24:09.173Z,2190.00
2022-10-22T00:24:19.227Z,2192.00
2022-10-22T00:24:29.261Z,2190.00
2022-10-22T00:24:39.300Z,2188.00
2022-10-22T00:24:59.382Z,2186.00
2022-10-22T00:25:09.426Z,2186.00
2022-10-22T00:25:19.488Z,2188.00
2022-10-22T00:25:29.527Z,2188.00
2022-10-22T00:25:39.638Z,2189.00
2022-10-22T00:25:59.694Z,2191.00
2022-10-22T00:26:09.737Z,2191.00
2022-10-22T00:26:19.783Z,2193.00
2022-10-22T00:26:29.827Z,2195.00
2022-10-22T00:26:39.877Z,2194.00
2022-10-22T00:26:59.976Z,2195.00
2022-10-22T00:27:10.018Z,2195.00
2022-10-22T00:27:20.049Z,2193.00
2022-10-22T00:27:30.080Z,2193.00
2022-10-22T00:27:40.276Z,2191.00
2022-10-22T00:28:00.175Z,2188.00
2022-10-22T00:28:10.228Z,2189.00
2022-10-22T00:28:20.287Z,2186.00
2022-10-22T00:28:30.332Z,2186.00
2022-10-22T00:28:40.356Z,2185.00
2022-10-22T00:29:00.432Z,2186.00
2022-10-22T00:29:10.475Z,2186.00
2022-10-22T00:29:20.531Z,2186.00
2022-10-22T00:29:30.578Z,2186.00
2022-10-22T00:29:40.609Z,2186.00
2022-10-22T00:30:00.664Z,2186.00
2022-10-22T00:30:10.714Z,2185.00
2022-10-22T00:30:20.765Z,2187.00
2022-10-22T00:30:30.805Z,2183.00
2022-10-22T00:30:40.847Z,2182.00
2022-10-22T00:31:00.894Z,2182.00
2022-10-22T00:31:10.938Z,2180.00
2022-10-22T00:31:20.988Z,2181.00
2022-10-22T00:31:31.038Z,2182.00
2022-10-22T00:31:41.082Z,2181.00
2022-10-22T00:32:01.133Z,2185.00
2022-10-22T00:32:11.168Z,2186.00
2022-10-22T00:32:21.206Z,2185.00
2022-10-22T00:32:31.247Z,2186.00
2022-10-22T00:32:41.642Z,2183.00
2022-10-22T00:33:01.343Z,2184.00
2022-10-22T00:33:11.441Z,2185.00
2022-10-22T00:33:21.470Z,2185.00
2022-10-22T00:33:31.518Z,2185.00
2022-10-22T00:33:41.564Z,2183.00
2022-10-22T00:34:01.616Z,2181.00
2022-10-22T00:34:11.640Z,2178.00
2022-10-22T00:34:21.706Z,2174.00
2022-10-22T00:34:31.743Z,2175.00
2022-10-22T00:34:41.795Z,2173.00
2022-10-22T00:35:01.855Z,2171.00
2022-10-22T00:35:11.884Z,2168.00
2022-10-22T00:35:21.933Z,2166.00
2022-10-22T00:35:31.990Z,2168.00
2022-10-22T00:35:42.032Z,2167.00
2022-10-22T00:36:02.125Z,2165.00
2022-10-22T00:36:12.179Z,2164.00
2022-10-22T00:36:22.233Z,2162.00
2022-10-22T00:36:32.271Z,2160.00
2022-10-22T00:36:42.325Z,2158.00
2022-10-22T00:37:02.368Z,2155.00
2022-10-22T00:37:12.410Z,2160.00
2022-10-22T00:37:22.461Z,2159.00
2022-10-22T00:37:32.547Z,2158.00
2022-10-22T00:37:42.581Z,2158.00
2022-10-22T00:37:52.620Z,2159.00
2022-10-22T00:38:02.664Z,2160.00
2022-10-22T00:38:12.722Z,2162.00
2022-10-22T00:38:22.779Z,2163.00
2022-10-22T00:38:32.827Z,2166.00
2022-10-22T00:38:42.868Z,2165.00
2022-10-22T00:38:52.910Z,2165.00
2022-10-22T00:39:02.952Z,2164.00
2022-10-22T00:39:13.003Z,2166.00
2022-10-22T00:39:23.053Z,2167.00
2022-10-22T00:39:33.086Z,2167.00
2022-10-22T00:39:43.129Z,2167.00
2022-10-22T00:39:53.168Z,2167.00
2022-10-22T00:40:03.212Z,2169.00
2022-10-22T00:40:13.255Z,2168.00
2022-10-22T00:40:23.313Z,2169.00
2022-10-22T00:40:33.360Z,2170.00
2022-10-22T00:40:43.405Z,2171.00
2022-10-22T00:40:53.462Z,2171.00
2022-10-22T00:41:03.524Z,2171.00
2022-10-22T00:41:13.551Z,2172.00
2022-10-22T00:41:23.592Z,2172.00
2022-10-22T00:41:33.631Z,2173.00
2022-10-22T00:41:43.680Z,2173.00
2022-10-22T00:41:53.744Z,2171.00
2022-10-22T00:42:03.779Z,2169.00
2022-10-22T00:42:13.801Z,2170.00
2022-10-22T00:42:23.852Z,2171.00
2022-10-22T00:42:33.916Z,2172.00
2022-10-22T00:42:44.098Z,2172.00
2022-10-22T00:42:53.994Z,2170.00
2022-10-22T00:43:04.049Z,2168.00
2022-10-22T00:43:14.088Z,2169.00
2022-10-22T00:43:24.124Z,2167.00
2022-10-22T00:43:34.172Z,2169.00
2022-10-22T00:43:44.220Z,2168.00
2022-10-22T00:43:54.273Z,2167.00
2022-10-22T00:44:04.311Z,2167.00
2022-10-22T00:44:14.351Z,2168.00
2022-10-22T00:44:24.384Z,2168.00
2022-10-22T00:44:34.430Z,2170.00
2022-10-22T00:44:44.472Z,2172.00
2022-10-22T00:44:54.518Z,2172.00
2022-10-22T00:45:04.578Z,2173.00
2022-10-22T00:45:14.615Z,2174.00
2022-10-22T00:45:24.650Z,2173.00
2022-10-22T00:45:34.681Z,2173.00
2022-10-22T00:45:44.730Z,2172.00
2022-10-22T00:45:54.767Z,2173.00
2022-10-22T00:46:04.822Z,2173.00
2022-10-22T00:46:14.857Z,2174.00
2022-10-22T00:46:24.901Z,2171.00
2022-10-22T00:46:34.931Z,2170.00
2022-10-22T00:46:44.975Z,2168.00
2022-10-22T00:46:55.020Z,2169.00
2022-10-22T00:47:05.058Z,2167.00
2022-10-22T00:47:15.099Z,2167.00
2022-10-22T00:47:25.135Z,2168.00
2022-10-22T00:47:35.171Z,2167.00
2022-10-22T00:47:45.201Z,2167.00
2022-10-22T00:47:55.253Z,2167.00
2022-10-22T00:48:05.298Z,2166.00
2022-10-22T00:48:15.340Z,2167.00
2022-10-22T00:48:25.383Z,2166.00
2022-10-22T00:48:35.426Z,2165.00
2022-10-22T00:48:45.481Z,2165.00
2022-10-22T00:48:55.518Z,2166.00
2022-10-22T00:49:05.567Z,2165.00
2022-10-22T00:49:15.601Z,2165.00
2022-10-22T00:49:25.650Z,2164.00
2022-10-22T00:49:35.699Z,2163.00
2022-10-22T00:49:45.737Z,2162.00
2022-10-22T00:49:55.820Z,2161.00
2022-10-22T00:50:05.907Z,2161.00
2022-10-22T00:50:15.955Z,2160.00
2022-10-22T00:50:25.992Z,2158.00
2022-10-22T00:50:36.034Z,2158.00
2022-10-22T00:50:46.074Z,2157.00
2022-10-22T00:50:56.127Z,2158.00
2022-10-22T00:51:06.176Z,2159.00
2022-10-22T00:51:16.236Z,2160.00
2022-10-22T00:51:26.271Z,2159.00
2022-10-22T00:51:36.309Z,2159.00
2022-10-22T00:51:56.374Z,2159.00
2022-10-22T00:52:06.417Z,2156.00
2022-10-22T00:52:16.449Z,2158.00
2022-10-22T00:52:26.492Z,2156.00
2022-10-22T00:52:36.529Z,2156.00
2022-10-22T00:52:56.570Z,2156.00
2022-10-22T00:53:06.620Z,2153.00
2022-10-22T00:53:16.666Z,2152.00
2022-10-22T00:53:26.700Z,2152.00
2022-10-22T00:53:36.740Z,2152.00
2022-10-22T00:53:56.787Z,2152.00
2022-10-22T00:54:06.841Z,2150.00
2022-10-22T00:54:16.887Z,2149.00
2022-10-22T00:54:26.925Z,2150.00
2022-10-22T00:54:36.962Z,2149.00
2022-10-22T00:54:57.027Z,2146.00
2022-10-22T00:55:07.085Z,2145.00
2022-10-22T00:55:17.131Z,2145.00
2022-10-22T00:55:27.172Z,2143.00
2022-10-22T00:55:37.201Z,2143.00
2022-10-22T00:55:57.358Z,2141.00
2022-10-22T00:56:07.422Z,2139.00
2022-10-22T00:56:17.462Z,2139.00
2022-10-22T00:56:27.514Z,2137.00
2022-10-22T00:56:37.570Z,2136.00
2022-10-22T00:56:57.622Z,2135.00
2022-10-22T00:57:07.667Z,2135.00
2022-10-22T00:57:17.699Z,2135.00
2022-10-22T00:57:27.724Z,2133.00
2022-10-22T00:57:37.764Z,2134.00
2022-10-22T00:57:57.824Z,2135.00
2022-10-22T00:58:07.854Z,2135.00
2022-10-22T00:58:17.890Z,2137.00
2022-10-22T00:58:27.936Z,2136.00
2022-10-22T00:58:37.976Z,2137.00
2022-10-22T00:58:58.082Z,2138.00
2022-10-22T00:59:18.174Z,2136.00
2022-10-22T00:59:28.218Z,2136.00
2022-10-22T00:59:38.261Z,2135.00
2022-10-22T00:59:58.339Z,2139.00
2022-10-22T01:00:08.388Z,2139.00
2022-10-22T01:00:18.416Z,2139.00
2022-10-22T01:00:28.534Z,2139.00
2022-10-22T01:00:38.527Z,2139.00
2022-10-22T01:00:58.708Z,2138.00
2022-10-22T01:01:08.753Z,2137.00
2022-10-22T01:01:18.776Z,2135.00
2022-10-22T01:01:28.814Z,2135.00
2022-10-22T01:01:38.887Z,2135.00
2022-10-22T01:01:58.903Z,2133.00
2022-10-22T01:02:08.955Z,2132.00
2022-10-22T01:02:18.990Z,2131.00
2022-10-22T01:02:29.043Z,2133.00
2022-10-22T01:02:39.445Z,2135.00
2022-10-22T01:02:59.230Z,2134.00
2022-10-22T01:03:09.260Z,2133.00
2022-10-22T01:03:19.301Z,2133.00
2022-10-22T01:03:29.343Z,2132.00
2022-10-22T01:03:39.390Z,2133.00
2022-10-22T01:03:59.437Z,2131.00
2022-10-22T01:04:09.493Z,2127.00
2022-10-22T01:04:19.523Z,2127.00
2022-10-22T01:04:29.555Z,2127.00
2022-10-22T01:04:39.578Z,2126.00
2022-10-22T01:04:59.626Z,2124.00
2022-10-22T01:05:09.664Z,2123.00
2022-10-22T01:05:19.707Z,2121.00
2022-10-22T01:05:29.747Z,2121.00
2022-10-22T01:05:39.787Z,2122.00
2022-10-22T01:05:59.839Z,2119.00
2022-10-22T01:06:09.873Z,2117.00
2022-10-22T01:06:19.915Z,2115.00
2022-10-22T01:06:29.971Z,2113.00
2022-10-22T01:06:40.022Z,2112.00
2022-10-22T01:07:00.085Z,2114.00
2022-10-22T01:07:10.119Z,2113.00
2022-10-22T01:07:20.145Z,2116.00
2022-10-22T01:07:30.192Z,2115.00
2022-10-22T01:07:40.217Z,2115.00
2022-10-22T01:08:00.369Z,2112.00
2022-10-22T01:08:20.506Z,2112.00
2022-10-22T01:08:30.590Z,2113.00
2022-10-22T01:08:40.740Z,2112.00
2022-10-22T01:09:00.829Z,2114.00
2022-10-22T01:09:10.943Z,2114.00
2022-10-22T01:09:20.987Z,2114.00
2022-10-22T01:09:31.018Z,2113.00
2022-10-22T01:09:41.055Z,2115.00
2022-10-22T01:10:01.106Z,2114.00
2022-10-22T01:10:11.155Z,2115.00
2022-10-22T01:10:21.211Z,2115.00
2022-10-22T01:10:31.238Z,2116.00
2022-10-22T01:10:41.307Z,2116.00
2022-10-22T01:11:01.376Z,2118.00
2022-10-22T01:11:11.420Z,2116.00
2022-10-22T01:11:21.477Z,2118.00
2022-10-22T01:11:31.527Z,2117.00
2022-10-22T01:11:41.571Z,2118.00
2022-10-22T01:12:01.621Z,2119.00
2022-10-22T01:12:11.677Z,2120.00
2022-10-22T01:12:21.708Z,2121.00
2022-10-22T01:12:31.742Z,2121.00
2022-10-22T01:12:42.340Z,2119.00
2022-10-22T01:13:01.837Z,2119.00
2022-10-22T01:13:11.866Z,2119.00
2022-10-22T01:13:21.913Z,2120.00
2022-10-22T01:13:31.958Z,2120.00
2022-10-22T01:13:41.997Z,2123.00
2022-10-22T01:14:02.054Z,2128.00
2022-10-22T01:14:12.085Z,2126.00
2022-10-22T01:14:22.127Z,2124.00
2022-10-22T01:14:32.166Z,2125.00
2022-10-22T01:14:42.206Z,2124.00
2022-10-22T01:15:02.269Z,2127.00
2022-10-22T01:15:12.303Z,2127.00
2022-10-22T01:15:22.349Z,2127.00
2022-10-22T01:15:32.389Z,2126.00
2022-10-22T01:15:42.432Z,2124.00
2022-10-22T01:16:02.486Z,2124.00
2022-10-22T01:16:12.507Z,2123.00
2022-10-22T01:16:22.555Z,2124.00
2022-10-22T01:16:32.603Z,2121.00
2022-10-22T01:16:42.641Z,2120.00
2022-10-22T01:16:52.669Z,2121.00
2022-10-22T01:17:02.707Z,2122.00
2022-10-22T01:17:12.789Z,2124.00
2022-10-22T01:17:22.864Z,2126.00
2022-10-22T01:17:32.896Z,2124.00
2022-10-22T01:17:43.538Z,2124.00
2022-10-22T01:17:52.955Z,2122.00
2022-10-22T01:18:02.998Z,2122.00
2022-10-22T01:18:13.038Z,2122.00
2022-10-22T01:18:23.063Z,2120.00
2022-10-22T01:18:33.089Z,2121.00
2022-10-22T01:18:43.138Z,2122.00
2022-10-22T01:18:53.183Z,2123.00
2022-10-22T01:19:03.215Z,2124.00
2022-10-22T01:19:13.275Z,2124.00
2022-10-22T01:19:23.343Z,2123.00
2022-10-22T01:19:33.387Z,2123.00
2022-10-22T01:19:43.434Z,2122.00
2022-10-22T01:19:53.485Z,2124.00
2022-10-22T01:20:03.541Z,2124.00
2022-10-22T01:20:13.578Z,2122.00
2022-10-22T01:20:23.635Z,2123.00
2022-10-22T01:20:33.673Z,2122.00
2022-10-22T01:20:43.722Z,2120.00
2022-10-22T01:20:53.771Z,2120.00
2022-10-22T01:21:03.816Z,2120.00
2022-10-22T01:21:13.854Z,2119.00
2022-10-22T01:21:23.901Z,2117.00
2022-10-22T01:21:33.937Z,2119.00
2022-10-22T01:21:44.009Z,2117.00
2022-10-22T01:21:54.062Z,2116.00
2022-10-22T01:22:04.104Z,2115.00
2022-10-22T01:22:14.134Z,2115.00
2022-10-22T01:22:24.179Z,2116.00
2022-10-22T01:22:34.232Z,2115.00
2022-10-22T01:22:44.283Z,2117.00
2022-10-22T01:22:54.323Z,2116.00
2022-10-22T01:23:04.405Z,2116.00
2022-10-22T01:23:14.470Z,2115.00
2022-10-22T01:23:24.513Z,2115.00
2022-10-22T01:23:34.550Z,2113.00
2022-10-22T01:23:44.589Z,2113.00
2022-10-22T01:23:54.639Z,2110.00
2022-10-22T01:24:04.675Z,2109.00
2022-10-22T01:24:14.709Z,2108.00
2022-10-22T01:24:24.745Z,2107.00
2022-10-22T01:24:34.791Z,2105.00
2022-10-22T01:24:44.821Z,2105.00
2022-10-22T01:24:54.851Z,2106.00
2022-10-22T01:25:04.884Z,2105.00
2022-10-22T01:25:14.933Z,2104.00
2022-10-22T01:25:24.960Z,2105.00
2022-10-22T01:25:35.006Z,2106.00
2022-10-22T01:25:45.037Z,2105.00
2022-10-22T01:25:55.080Z,2104.00
2022-10-22T01:26:05.120Z,2105.00
2022-10-22T01:26:15.255Z,2106.00
2022-10-22T01:26:25.190Z,2105.00
2022-10-22T01:26:35.244Z,2104.00
2022-10-22T01:26:45.285Z,2105.00
2022-10-22T01:26:55.326Z,2104.00
2022-10-22T01:27:05.364Z,2102.00
2022-10-22T01:27:15.412Z,2099.00
2022-10-22T01:27:25.443Z,2098.00
2022-10-22T01:27:35.495Z,2098.00
2022-10-22T01:27:55.537Z,2100.00
2022-10-22T01:28:05.576Z,2101.00
2022-10-22T01:28:15.644Z,2099.00
2022-10-22T01:28:25.701Z,2099.00
2022-10-22T01:28:35.757Z,2097.00
2022-10-22T01:28:55.807Z,2098.00
2022-10-22T01:29:05.858Z,2097.00
2022-10-22T01:29:15.912Z,2098.00
2022-10-22T01:29:25.951Z,2099.00
2022-10-22T01:29:36.003Z,2097.00
2022-10-22T01:29:56.060Z,2098.00
2022-10-22T01:30:06.100Z,2098.00
2022-10-22T01:30:16.144Z,2098.00
2022-10-22T01:30:26.182Z,2096.00
2022-10-22T01:30:36.221Z,2096.00
2022-10-22T01:30:56.396Z,2097.00
2022-10-22T01:31:06.459Z,2097.00
2022-10-22T01:31:16.500Z,2098.00
2022-10-22T01:31:26.542Z,2098.00
2022-10-22T01:31:36.580Z,2097.00
2022-10-22T01:31:56.632Z,2098.00
2022-10-22T01:32:06.681Z,2097.00
2022-10-22T01:32:16.723Z,2096.00
2022-10-22T01:32:26.759Z,2096.00
2022-10-22T01:32:36.795Z,2097.00
2022-10-22T01:32:56.909Z,2095.00
2022-10-22T01:33:06.945Z,2094.00
2022-10-22T01:33:17.036Z,2094.00
2022-10-22T01:33:27.060Z,2093.00
2022-10-22T01:33:37.096Z,2095.00
2022-10-22T01:33:57.121Z,2095.00
2022-10-22T01:34:07.172Z,2096.00
2022-10-22T01:34:17.219Z,2098.00
2022-10-22T01:34:27.256Z,2096.00
2022-10-22T01:34:37.302Z,2096.00
2022-10-22T01:34:57.387Z,2094.00
2022-10-22T01:35:07.446Z,2094.00
2022-10-22T01:35:17.483Z,2096.00
2022-10-22T01:35:27.563Z,2096.00
2022-10-22T01:35:37.628Z,2097.00
2022-10-22T01:35:57.694Z,2096.00
2022-10-22T01:36:07.764Z,2095.00
2022-10-22T01:36:17.796Z,2094.00
2022-10-22T01:36:27.843Z,2093.00
2022-10-22T01:36:37.903Z,2094.00
2022-10-22T01:36:57.946Z,2093.00
2022-10-22T01:37:07.984Z,2094.00
2022-10-22T01:37:18.021Z,2094.00
2022-10-22T01:37:28.062Z,2094.00
2022-10-22T01:37:38.529Z,2095.00
2022-10-22T01:37:58.168Z,2094.00
2022-10-22T01:38:08.218Z,2095.00
2022-10-22T01:38:18.251Z,2094.00
2022-10-22T01:38:28.290Z,2092.00
2022-10-22T01:38:38.333Z,2093.00
2022-10-22T01:38:58.412Z,2092.00
2022-10-22T01:39:08.452Z,2092.00
2022-10-22T01:39:18.458Z,2090.00
2022-10-22T01:39:28.501Z,2094.00
2022-10-22T01:39:38.548Z,2094.00
2022-10-22T01:39:58.847Z,2095.00
2022-10-22T01:40:08.597Z,2095.00
2022-10-22T01:40:18.647Z,2096.00
2022-10-22T01:40:28.684Z,2096.00
2022-10-22T01:40:38.746Z,2098.00
2022-10-22T01:40:58.803Z,2095.00
2022-10-22T01:41:08.852Z,2094.00
2022-10-22T01:41:18.899Z,2092.00
2022-10-22T01:41:28.948Z,2090.00
2022-10-22T01:41:39.006Z,2093.00
2022-10-22T01:41:59.067Z,2091.00
2022-10-22T01:42:09.131Z,2091.00
2022-10-22T01:42:19.169Z,2094.00
2022-10-22T01:42:29.206Z,2097.00
2022-10-22T01:42:39.263Z,2094.00
2022-10-22T01:42:59.320Z,2093.00
2022-10-22T01:43:09.360Z,2093.00
2022-10-22T01:43:19.415Z,2096.00
2022-10-22T01:43:29.477Z,2093.00
2022-10-22T01:43:39.503Z,2094.00
2022-10-22T01:43:59.561Z,2090.00
2022-10-22T01:44:09.609Z,2089.00
2022-10-22T01:44:19.662Z,2087.00
2022-10-22T01:44:29.749Z,2084.00
2022-10-22T01:44:39.829Z,2083.00
2022-10-22T01:44:59.882Z,2082.00
2022-10-22T01:45:09.925Z,2082.00
2022-10-22T01:45:19.974Z,2082.00
2022-10-22T01:45:30.002Z,2082.00
2022-10-22T01:45:40.042Z,2082.00
2022-10-22T01:46:00.088Z,2083.00
2022-10-22T01:46:10.129Z,2082.00
2022-10-22T01:46:20.161Z,2083.00
2022-10-22T01:46:30.218Z,2081.00
2022-10-22T01:46:40.249Z,2082.00
2022-10-22T01:47:00.301Z,2082.00
2022-10-22T01:47:10.364Z,2081.00
2022-10-22T01:47:20.417Z,2082.00
2022-10-22T01:47:30.455Z,2081.00
2022-10-22T01:47:40.782Z,2080.00
2022-10-22T01:48:00.656Z,2081.00
2022-10-22T01:48:10.682Z,2082.00
2022-10-22T01:48:20.714Z,2082.00
2022-10-22T01:48:30.746Z,2082.00
2022-10-22T01:48:40.790Z,2079.00
2022-10-22T01:49:00.832Z,2075.00
2022-10-22T01:49:10.890Z,2072.00
2022-10-22T01:49:20.932Z,2073.00
2022-10-22T01:49:30.986Z,2075.00
2022-10-22T01:49:41.031Z,2074.00
2022-10-22T01:50:01.081Z,2075.00
2022-10-22T01:50:11.095Z,2073.00
2022-10-22T01:50:21.136Z,2072.00
2022-10-22T01:50:31.175Z,2072.00
2022-10-22T01:50:41.210Z,2072.00
2022-10-22T01:51:01.289Z,2070.00
2022-10-22T01:51:11.368Z,2071.00
2022-10-22T01:51:21.411Z,2072.00
2022-10-22T01:51:31.445Z,2069.00
2022-10-22T01:51:41.486Z,2068.00
2022-10-22T01:52:01.545Z,2066.00
2022-10-22T01:52:11.584Z,2065.00
2022-10-22T01:52:21.652Z,2062.00
2022-10-22T01:52:31.706Z,2062.00
2022-10-22T01:52:41.747Z,2063.00
2022-10-22T01:53:01.799Z,2063.00
2022-10-22T01:53:11.828Z,2062.00
2022-10-22T01:53:21.859Z,2061.00
2022-10-22T01:53:31.939Z,2060.00
2022-10-22T01:53:42.077Z,2061.00
2022-10-22T01:54:02.133Z,2061.00
2022-10-22T01:54:12.172Z,2059.00
2022-10-22T01:54:22.224Z,2058.00
2022-10-22T01:54:32.265Z,2056.00
2022-10-22T01:54:42.306Z,2058.00
2022-10-22T01:55:02.385Z,2059.00
2022-10-22T01:55:12.413Z,2058.00
2022-10-22T01:55:22.460Z,2058.00
2022-10-22T01:55:32.521Z,2057.00
2022-10-22T01:55:42.552Z,2057.00
2022-10-22T01:55:52.584Z,2057.00
2022-10-22T01:56:02.625Z,2057.00
2022-10-22T01:56:12.659Z,2056.00
2022-10-22T01:56:22.700Z,2059.00
2022-10-22T01:56:32.746Z,2059.00
2022-10-22T01:56:42.785Z,2060.00
2022-10-22T01:56:52.837Z,2060.00
2022-10-22T01:57:02.884Z,2059.00
2022-10-22T01:57:12.925Z,2060.00
2022-10-22T01:57:22.969Z,2061.00
2022-10-22T01:57:33.014Z,2059.00
2022-10-22T01:57:43.420Z,2057.00
2022-10-22T01:57:53.183Z,2057.00
2022-10-22T01:58:03.220Z,2059.00
2022-10-22T01:58:13.257Z,2057.00
2022-10-22T01:58:23.302Z,2057.00
2022-10-22T01:58:33.348Z,2056.00
2022-10-22T01:58:43.403Z,2056.00
2022-10-22T01:58:53.447Z,2056.00
2022-10-22T01:59:03.494Z,2057.00
2022-10-22T01:59:13.541Z,2059.00
2022-10-22T01:59:23.589Z,2060.00
2022-10-22T01:59:33.635Z,2059.00
2022-10-22T01:59:43.678Z,2060.00
2022-10-22T01:59:53.722Z,2059.00
2022-10-22T02:00:03.771Z,2060.00
2022-10-22T02:00:13.816Z,2060.00
2022-10-22T02:00:23.851Z,2058.00
2022-10-22T02:00:33.926Z,2057.00
2022-10-22T02:00:44.026Z,2057.00
2022-10-22T02:00:54.154Z,2055.00
2022-10-22T02:01:04.265Z,2056.00
2022-10-22T02:01:14.252Z,2055.00
2022-10-22T02:01:24.212Z,2055.00
2022-10-22T02:01:34.253Z,2055.00
2022-10-22T02:01:44.291Z,2055.00
2022-10-22T02:01:54.338Z,2053.00
2022-10-22T02:02:04.365Z,2053.00
2022-10-22T02:02:14.410Z,2053.00
2022-10-22T02:02:24.448Z,2052.00
2022-10-22T02:02:34.520Z,2048.00
2022-10-22T02:02:54.592Z,2046.00
2022-10-22T02:03:04.718Z,2045.00
2022-10-22T02:03:17.416Z,2041.00
2022-10-22T02:03:24.887Z,2041.00
2022-10-22T02:03:34.930Z,2040.00
2022-10-22T02:03:54.985Z,2040.00
2022-10-22T02:04:05.029Z,2043.00
2022-10-22T02:04:15.068Z,2041.00
2022-10-22T02:04:25.103Z,2042.00
2022-10-22T02:04:35.148Z,2042.00
2022-10-22T02:04:55.192Z,2043.00
2022-10-22T02:05:05.236Z,2043.00
2022-10-22T02:05:15.285Z,2043.00
2022-10-22T02:05:25.327Z,2044.00
2022-10-22T02:05:35.426Z,2043.00
2022-10-22T02:05:55.457Z,2041.00
2022-10-22T02:06:05.514Z,2040.00
2022-10-22T02:06:15.550Z,2041.00
2022-10-22T02:06:25.594Z,2040.00
2022-10-22T02:06:35.655Z,2040.00
2022-10-22T02:06:55.715Z,2041.00
2022-10-22T02:07:05.755Z,2039.00
2022-10-22T02:07:15.783Z,2040.00
2022-10-22T02:07:25.831Z,2036.00
2022-10-22T02:07:35.870Z,2035.00
2022-10-22T02:07:55.919Z,2033.00
2022-10-22T02:08:05.981Z,2034.00
2022-10-22T02:08:16.018Z,2033.00
2022-10-22T02:08:26.085Z,2035.00
2022-10-22T02:08:36.158Z,2034.00
2022-10-22T02:08:56.281Z,2035.00
2022-10-22T02:09:06.479Z,2036.00
2022-10-22T02:09:16.455Z,2036.00
2022-10-22T02:09:26.464Z,2036.00
2022-10-22T02:09:36.506Z,2036.00
2022-10-22T02:09:56.562Z,2037.00
2022-10-22T02:10:06.613Z,2038.00
2022-10-22T02:10:16.656Z,2038.00
2022-10-22T02:10:26.708Z,2037.00
2022-10-22T02:10:36.741Z,2037.00
2022-10-22T02:10:56.793Z,2039.00
2022-10-22T02:11:06.829Z,2038.00
2022-10-22T02:11:16.876Z,2037.00
2022-10-22T02:11:26.909Z,2037.00
2022-10-22T02:11:36.956Z,2037.00
2022-10-22T02:11:56.998Z,2036.00
2022-10-22T02:12:07.113Z,2035.00
2022-10-22T02:12:17.150Z,2035.00
2022-10-22T02:12:27.198Z,2036.00
2022-10-22T02:12:37.270Z,2035.00
2022-10-22T02:12:57.259Z,2034.00
2022-10-22T02:13:07.302Z,2033.00
2022-10-22T02:13:17.350Z,2033.00
2022-10-22T02:13:27.410Z,2032.00
2022-10-22T02:13:37.451Z,2031.00
2022-10-22T02:13:57.570Z,2031.00
2022-10-22T02:14:07.608Z,2031.00
2022-10-22T02:14:17.637Z,2030.00
2022-10-22T02:14:27.682Z,2031.00
2022-10-22T02:14:37.719Z,2033.00
2022-10-22T02:14:57.777Z,2033.00
2022-10-22T02:15:07.837Z,2030.00
2022-10-22T02:15:17.874Z,2029.00
2022-10-22T02:15:27.938Z,2030.00
2022-10-22T02:15:37.970Z,2030.00
2022-10-22T02:15:58.029Z,2033.00
2022-10-22T02:16:08.092Z,2034.00
2022-10-22T02:16:18.120Z,2032.00
2022-10-22T02:16:28.167Z,2032.00
2022-10-22T02:16:38.190Z,2033.00
2022-10-22T02:16:58.247Z,2032.00
2022-10-22T02:17:08.282Z,2030.00
2022-10-22T02:17:18.361Z,2030.00